Time;durP1;ratioP1;P1;durP2;ratioP2;P2;SDS_P1;SDS_P2;PMS_P1;PMS_P2;Temp;Humidity;BMP_temperature;BMP_pressure;BME280_temperature;BME280_humidity;BME280_pressure;Samples;Min_cycle;Max_cycle;Signal;HPM_P1;HPM_P2
2023/10/10 00:01:00;;;;;;;7.47;6.20;;;;;;;14.04;100.00;100632.56;4989914;28;20252;-65
2023/10/10 00:03:27;;;;;;;11.00;6.27;;;;;;;13.95;100.00;100631.38;4987310;28;20242;-65
2023/10/10 00:05:58;;;;;;;15.03;6.43;;;;;;;13.98;100.00;100623.44;4991072;28;20188;-64
2023/10/10 00:08:33;;;;;;;7.47;6.40;;;;;;;14.02;100.00;100627.47;4991431;28;20185;-64
2023/10/10 00:10:59;;;;;;;6.93;5.67;;;;;;;14.03;100.00;100629.16;4989819;28;20234;-64
2023/10/10 00:13:24;;;;;;;8.33;6.30;;;;;;;14.02;100.00;100626.66;5000167;28;20187;-64
2023/10/10 00:15:51;;;;;;;8.20;6.10;;;;;;;13.99;100.00;100627.69;4992104;28;20207;-65
2023/10/10 00:18:20;;;;;;;10.40;6.27;;;;;;;13.79;100.00;100626.31;4992425;28;20179;-65
2023/10/10 00:21:04;;;;;;;9.73;5.43;;;;;;;13.78;100.00;100644.47;4987642;28;20241;-65
2023/10/10 00:23:30;;;;;;;8.60;6.30;;;;;;;13.82;100.00;100636.44;4999411;28;20255;-65
2023/10/10 00:25:55;;;;;;;7.87;5.87;;;;;;;13.83;100.00;100627.78;4992316;28;20577;-65
2023/10/10 00:28:21;;;;;;;7.30;5.63;;;;;;;13.88;100.00;100617.16;4992379;28;20194;-64
2023/10/10 00:30:49;;;;;;;9.13;6.30;;;;;;;13.87;100.00;100623.25;4987824;28;20246;-64
2023/10/10 00:33:16;;;;;;;7.80;6.17;;;;;;;13.79;100.00;100618.56;4981136;28;20188;-65
2023/10/10 00:35:42;;;;;;;10.37;6.63;;;;;;;13.73;100.00;100618.91;4991975;28;20179;-64
2023/10/10 00:38:11;;;;;;;6.83;6.13;;;;;;;13.62;100.00;100622.13;4991015;28;20183;-64
2023/10/10 00:40:39;;;;;;;7.03;5.60;;;;;;;13.68;100.00;100624.34;4986242;28;20317;-64
2023/10/10 00:43:12;;;;;;;5.87;5.37;;;;;;;13.55;100.00;100624.22;5002264;28;20544;-65
2023/10/10 00:45:37;;;;;;;8.37;6.10;;;;;;;13.54;100.00;100629.50;4992560;28;20184;-64
2023/10/10 00:48:03;;;;;;;6.43;5.40;;;;;;;13.49;100.00;100628.94;4992209;28;20187;-65
2023/10/10 00:50:34;;;;;;;8.67;5.80;;;;;;;13.42;100.00;100623.31;4985575;28;20248;-64
2023/10/10 00:53:06;;;;;;;8.47;6.17;;;;;;;13.36;100.00;100619.28;4989984;28;20620;-64
2023/10/10 00:55:36;;;;;;;8.30;6.10;;;;;;;13.36;100.00;100626.22;4992160;28;20187;-65
2023/10/10 00:58:04;;;;;;;11.03;6.60;;;;;;;13.26;100.00;100622.47;4995322;28;20185;-64
2023/10/10 01:00:32;;;;;;;7.57;5.73;;;;;;;13.14;100.00;100624.03;4989374;28;20698;-64
2023/10/10 02:00:26;;;;;;;9.57;6.77;;;;;;;12.15;100.00;100591.53;4963706;28;20251;-65
2023/10/10 02:02:53;;;;;;;10.60;6.23;;;;;;;12.14;100.00;100589.88;5006588;28;20191;-65
2023/10/10 02:05:32;;;;;;;8.20;6.07;;;;;;;12.23;100.00;100594.53;4994998;28;20295;-64
2023/10/10 02:08:09;;;;;;;8.27;5.90;;;;;;;12.23;100.00;100589.38;4992971;28;20182;-64
2023/10/10 02:10:36;;;;;;;6.87;5.70;;;;;;;12.30;100.00;100587.28;4988773;28;20734;-65
2023/10/10 02:13:06;;;;;;;9.33;5.47;;;;;;;12.30;100.00;100589.88;4991933;28;20266;-64
2023/10/10 02:15:36;;;;;;;7.43;6.23;;;;;;;12.26;100.00;100591.78;4994676;28;20238;-65
2023/10/10 02:18:04;;;;;;;8.97;6.40;;;;;;;12.29;100.00;100593.38;4993558;28;20203;-65
2023/10/10 02:20:49;;;;;;;7.57;6.33;;;;;;;12.17;100.00;100596.59;4987099;28;20643;-64
2023/10/10 02:23:31;;;;;;;10.50;6.57;;;;;;;12.18;100.00;100596.53;4992069;28;20176;-65
2023/10/10 02:26:14;;;;;;;7.27;6.17;;;;;;;12.16;100.00;100584.66;4993419;28;20673;-65
2023/10/10 02:29:34;;;;;;;11.03;5.93;;;;;;;12.13;100.00;100595.09;4992906;28;20199;-63
2023/10/10 02:31:28;;;;;;;8.40;6.33;;;;;;;12.05;100.00;100592.94;4995825;28;20434;-64
2023/10/10 02:34:02;;;;;;;11.27;6.67;;;;;;;11.92;100.00;100590.97;4997681;28;20183;-63
2023/10/10 02:36:30;;;;;;;10.73;6.67;;;;;;;11.93;100.00;100590.06;4994264;28;20186;-64
2023/10/10 02:41:51;;;;;;;6.60;5.43;;;;;;;11.91;100.00;100594.47;4995500;28;20333;-63
2023/10/10 02:44:26;;;;;;;11.73;6.77;;;;;;;11.87;100.00;100587.81;4992664;28;20500;-63
2023/10/10 02:46:54;;;;;;;9.80;6.80;;;;;;;11.73;100.00;100591.13;4992790;28;20269;-64
2023/10/10 02:49:29;;;;;;;9.33;7.00;;;;;;;11.83;100.00;100599.19;4992702;28;20241;-63
2023/10/10 02:51:55;;;;;;;10.97;7.00;;;;;;;11.82;100.00;100594.09;4985193;28;20704;-64
2023/10/10 02:54:32;;;;;;;10.40;6.43;;;;;;;11.84;100.00;100598.28;4992531;28;20184;-65
2023/10/10 02:59:59;;;;;;;8.70;6.40;;;;;;;11.82;100.00;100599.25;4993814;28;20706;-64
2023/10/10 03:03:18;;;;;;;10.87;6.57;;;;;;;11.83;100.00;100599.19;4979400;28;20240;-64
2023/10/10 03:05:17;;;;;;;24.77;16.73;;;;;;;11.76;100.00;100597.84;4978359;28;20275;-65
2023/10/10 03:07:51;;;;;;;11.27;7.50;;;;;;;11.73;100.00;100587.69;4992339;28;20187;-64
2023/10/10 03:12:42;;;;;;;12.20;6.53;;;;;;;11.70;100.00;100590.44;5005835;28;20187;-64
2023/10/10 03:15:27;;;;;;;10.50;6.03;;;;;;;11.73;100.00;100598.00;4992112;28;20270;-64
2023/10/10 03:23:32;;;;;;;9.73;6.30;;;;;;;11.60;100.00;100590.06;5000965;28;20673;-65
2023/10/10 03:26:19;;;;;;;8.97;6.17;;;;;;;11.60;100.00;100590.06;4991684;28;20179;-64
2023/10/10 03:28:47;;;;;;;11.03;6.93;;;;;;;11.57;100.00;100592.78;4991632;28;21023;-64
2023/10/10 05:23:29;;;;;;;11.30;6.63;;;;;;;11.58;100.00;100602.19;4991846;28;20333;-65
2023/10/10 05:25:23;;;;;;;11.93;7.70;;;;;;;10.81;100.00;100588.75;4971916;28;20198;-65
2023/10/10 05:27:51;;;;;;;12.40;8.00;;;;;;;10.84;100.00;100591.22;4969748;28;20255;-64
2023/10/10 05:30:23;;;;;;;10.70;6.83;;;;;;;10.76;100.00;100586.41;4961354;28;20185;-65
2023/10/10 05:33:12;;;;;;;9.37;7.00;;;;;;;10.79;100.00;100585.44;4989150;28;20180;-65
2023/10/10 05:35:39;;;;;;;11.47;6.93;;;;;;;10.77;100.00;100588.06;4991330;28;20226;-65
2023/10/10 05:38:07;;;;;;;14.60;8.07;;;;;;;10.87;100.00;100587.66;4990600;28;20184;-65
2023/10/10 05:40:33;;;;;;;12.37;7.07;;;;;;;10.83;100.00;100592.13;4963825;28;20231;-65
2023/10/10 05:43:03;;;;;;;11.17;7.70;;;;;;;10.77;100.00;100594.97;4984486;28;20194;-65
2023/10/10 05:45:29;;;;;;;13.33;7.63;;;;;;;10.79;100.00;100593.16;5006221;28;20175;-65
2023/10/10 05:47:54;;;;;;;13.53;7.70;;;;;;;10.86;100.00;100591.13;4995322;28;20274;-64
2023/10/10 05:50:21;;;;;;;10.17;8.10;;;;;;;10.80;100.00;100597.38;4987096;28;20262;-63
2023/10/10 05:52:48;;;;;;;10.40;8.37;;;;;;;10.77;100.00;100593.22;5006928;28;20191;-63
2023/10/10 05:55:14;;;;;;;10.10;7.53;;;;;;;10.86;100.00;100591.94;4994899;28;20262;-64
2023/10/10 05:57:41;;;;;;;13.93;7.83;;;;;;;10.90;100.00;100596.06;4993417;28;20230;-65
2023/10/10 06:00:10;;;;;;;10.57;7.60;;;;;;;11.06;100.00;100596.13;4999262;28;20199;-65
2023/10/10 06:02:43;;;;;;;13.27;8.10;;;;;;;11.15;100.00;100597.44;4992614;28;20183;-66
2023/10/10 06:05:09;;;;;;;15.83;8.33;;;;;;;11.27;100.00;100599.38;4993534;28;20210;-64
2023/10/10 06:07:37;;;;;;;11.30;7.63;;;;;;;11.40;100.00;100607.34;4993168;28;20175;-64
2023/10/10 06:10:06;;;;;;;12.70;7.77;;;;;;;11.55;100.00;100597.22;4970444;28;20187;-64
2023/10/10 06:12:36;;;;;;;11.37;7.10;;;;;;;11.71;100.00;100599.81;5008049;28;20191;-64
2023/10/10 06:15:05;;;;;;;12.33;7.33;;;;;;;11.80;100.00;100607.09;4993373;28;20265;-65
2023/10/10 06:17:33;;;;;;;13.03;7.40;;;;;;;11.88;100.00;100607.53;4994333;28;20179;-63
2023/10/10 06:20:10;;;;;;;11.77;8.37;;;;;;;11.89;100.00;100609.16;4993260;28;20298;-64
2023/10/10 06:22:36;;;;;;;12.03;7.77;;;;;;;12.00;100.00;100605.25;4965995;28;20211;-65
2023/10/10 06:25:05;;;;;;;11.13;7.77;;;;;;;12.16;100.00;100607.84;4994498;28;20195;-65
2023/10/10 06:27:36;;;;;;;13.27;8.57;;;;;;;12.32;100.00;100603.53;4993025;28;20319;-65
2023/10/10 06:30:03;;;;;;;13.03;7.97;;;;;;;12.38;100.00;100605.78;4993694;28;20191;-66
2023/10/10 06:32:32;;;;;;;12.20;7.50;;;;;;;12.55;100.00;100609.19;4992213;28;20188;-63
2023/10/10 06:37:59;;;;;;;11.03;7.37;;;;;;;12.70;100.00;100617.84;4999662;28;20550;-65
2023/10/10 06:40:30;;;;;;;18.10;8.63;;;;;;;12.70;100.00;100615.25;4984485;28;20231;-64
2023/10/10 06:42:56;;;;;;;15.27;8.10;;;;;;;12.70;100.00;100618.69;5003805;28;20175;-64
2023/10/10 06:45:25;;;;;;;10.33;7.80;;;;;;;12.69;100.00;100611.84;5009580;28;20187;-64
2023/10/10 06:47:51;;;;;;;14.43;8.17;;;;;;;12.94;100.00;100614.78;4991477;28;20695;-64
2023/10/10 06:50:21;;;;;;;13.67;8.40;;;;;;;13.38;100.00;100619.22;5000116;28;20277;-63
2023/10/10 06:52:52;;;;;;;14.30;8.80;;;;;;;13.80;100.00;100611.59;5003588;28;20294;-64
2023/10/10 06:55:36;;;;;;;15.57;8.30;;;;;;;14.60;100.00;100605.84;4998174;28;20175;-64
2023/10/10 06:58:02;;;;;;;13.33;7.20;;;;;;;15.76;100.00;100599.13;5010999;28;20186;-63
2023/10/10 07:00:40;;;;;;;11.27;7.27;;;;;;;16.78;100.00;100597.22;4980771;28;20262;-64
2023/10/10 07:03:06;;;;;;;12.47;7.97;;;;;;;17.25;100.00;100607.69;4988701;28;20213;-65
2023/10/10 07:05:33;;;;;;;11.43;7.80;;;;;;;16.82;100.00;100609.97;4986150;28;20198;-66
2023/10/10 07:08:12;;;;;;;14.03;7.70;;;;;;;17.00;100.00;100607.84;5010515;28;20175;-65
2023/10/10 07:10:37;;;;;;;17.20;8.03;;;;;;;18.36;100.00;100602.75;5000148;28;20277;-67
2023/10/10 07:13:03;;;;;;;14.87;7.90;;;;;;;19.76;100.00;100600.03;4992721;28;20190;-64
2023/10/10 07:15:37;;;;;;;9.50;7.10;;;;;;;20.45;100.00;100603.66;4991944;28;20293;-65
2023/10/10 07:18:08;;;;;;;9.23;6.77;;;;;;;19.48;100.00;100610.19;4982032;28;20249;-65
2023/10/10 07:23:22;;;;;;;9.77;7.27;;;;;;;17.68;100.00;100623.59;5000619;28;20241;-65
2023/10/10 07:25:59;;;;;;;11.93;8.17;;;;;;;17.14;100.00;100620.66;4992944;28;20176;-64
2023/10/10 07:28:26;;;;;;;14.57;8.53;;;;;;;16.56;100.00;100616.13;4991511;28;20183;-65
2023/10/10 07:30:52;;;;;;;9.30;7.07;;;;;;;16.63;100.00;100619.09;4964694;28;20246;-65
2023/10/10 07:33:22;;;;;;;11.27;7.73;;;;;;;16.90;100.00;100612.84;4991884;28;20675;-65
2023/10/10 07:35:53;;;;;;;11.70;7.33;;;;;;;16.99;100.00;100613.97;4993301;28;20187;-64
2023/10/10 07:38:24;;;;;;;10.57;7.43;;;;;;;16.90;100.00;100612.84;4991541;28;20184;-65
2023/10/10 07:40:52;;;;;;;10.67;7.37;;;;;;;16.98;100.00;100613.16;4989215;28;20242;-64
2023/10/10 07:43:17;;;;;;;12.30;7.17;;;;;;;16.74;100.00;100605.34;5001017;28;20182;-65
2023/10/10 07:50:46;;;;;;;11.03;8.00;;;;;;;16.62;100.00;100625.22;4986784;28;20653;-65
2023/10/10 07:53:12;;;;;;;12.23;7.97;;;;;;;16.83;100.00;100625.47;5001500;28;20198;-66
2023/10/10 07:56:00;;;;;;;13.63;8.13;;;;;;;16.76;100.00;100621.66;4991371;28;20278;-65
2023/10/10 07:58:43;;;;;;;12.03;8.13;;;;;;;16.83;100.00;100620.28;4990899;28;20846;-65
2023/10/10 08:01:16;;;;;;;12.40;7.47;;;;;;;17.04;100.00;100612.72;4984078;28;20602;-65
2023/10/10 08:03:44;;;;;;;11.80;7.57;;;;;;;17.34;100.00;100615.72;4998181;28;20203;-66
2023/10/10 08:06:10;;;;;;;12.10;7.27;;;;;;;17.34;100.00;100615.72;4991937;28;20191;-65
2023/10/10 08:08:36;;;;;;;13.33;8.60;;;;;;;17.57;100.00;100620.00;4992607;28;20230;-65
2023/10/10 08:11:12;;;;;;;12.47;7.90;;;;;;;17.58;100.00;100615.66;4989850;28;20403;-65
2023/10/10 08:13:42;;;;;;;12.47;7.33;;;;;;;17.36;100.00;100613.84;4990882;28;20210;-65
2023/10/10 08:16:07;;;;;;;9.63;7.50;;;;;;;17.11;100.00;100607.88;4992363;28;20202;-65
2023/10/10 08:21:13;;;;;;;8.47;6.70;;;;;;;16.74;100.00;100607.94;4990210;28;20309;-65
2023/10/10 08:23:43;;;;;;;14.07;7.20;;;;;;;16.99;100.00;100611.38;4990428;28;20179;-65
2023/10/10 08:26:17;;;;;;;8.83;6.77;;;;;;;17.05;100.00;100603.13;4991159;28;20193;-64
2023/10/10 08:28:46;;;;;;;10.43;6.63;;;;;;;16.81;100.00;100603.97;4991904;28;20209;-65
2023/10/10 08:31:13;;;;;;;12.40;8.17;;;;;;;17.18;100.00;100614.28;4983447;28;20345;-66
2023/10/10 08:33:46;;;;;;;9.17;7.20;;;;;;;17.55;100.00;100618.47;4997725;28;20195;-65
2023/10/10 08:36:25;;;;;;;11.87;7.43;;;;;;;17.75;100.00;100612.59;4990913;28;20186;-66
2023/10/10 08:38:56;;;;;;;11.73;7.70;;;;;;;17.96;100.00;100617.13;4990849;28;20274;-64
2023/10/10 08:41:25;;;;;;;12.63;7.03;;;;;;;18.31;100.00;100618.72;4983406;28;20231;-65
2023/10/10 08:43:58;;;;;;;11.87;7.80;;;;;;;18.57;100.00;100615.00;4996696;28;20183;-64
2023/10/10 08:46:29;;;;;;;9.50;7.70;;;;;;;18.50;100.00;100620.69;4990609;28;20183;-66
2023/10/10 08:48:57;;;;;;;12.23;7.63;;;;;;;18.92;100.00;100620.00;4992337;28;20264;-65
2023/10/10 08:51:23;;;;;;;10.30;6.93;;;;;;;19.28;100.00;100610.09;4991944;28;20230;-66
2023/10/10 08:53:53;;;;;;;13.27;7.47;;;;;;;19.81;100.00;100609.13;4997023;28;20244;-65
2023/10/10 08:56:18;;;;;;;11.33;7.23;;;;;;;20.66;100.00;100611.38;4991748;28;20182;-65
2023/10/10 08:58:43;;;;;;;10.23;7.43;;;;;;;22.43;93.43;100614.38;4991865;28;20180;-64
2023/10/10 09:01:09;;;;;;;10.30;7.10;;;;;;;23.90;80.49;100617.34;4989622;28;20325;-64
2023/10/10 09:03:44;;;;;;;11.03;6.53;;;;;;;24.46;69.96;100623.78;4998260;28;20180;-63
2023/10/10 09:06:19;;;;;;;11.88;6.85;;;;;;;24.86;63.20;100620.53;4991889;28;20179;-64
2023/10/10 09:08:44;;;;;;;12.15;7.32;;;;;;;24.65;67.40;100603.44;4991786;28;20195;-64
2023/10/10 09:11:11;;;;;;;10.27;7.63;;;;;;;24.00;69.44;100612.81;4989814;28;20597;-65
2023/10/10 09:13:51;;;;;;;9.95;7.32;;;;;;;24.47;67.15;100611.44;4989979;28;20594;-66
2023/10/10 09:16:19;;;;;;;10.27;6.65;;;;;;;25.09;62.96;100612.78;4977927;28;20658;-67
2023/10/10 09:18:44;;;;;;;8.68;6.40;;;;;;;25.05;62.07;100614.13;4992408;28;20214;-65
2023/10/10 09:21:21;;;;;;;10.27;6.82;;;;;;;24.98;68.98;100611.31;4986915;28;20254;-65
2023/10/10 09:24:06;;;;;;;10.65;6.70;;;;;;;25.41;60.83;100613.75;4999551;28;20218;-65
2023/10/10 09:26:36;;;;;;;11.52;6.60;;;;;;;25.57;59.26;100618.16;4995193;28;20197;-64
2023/10/10 09:29:15;;;;;;;8.63;6.28;;;;;;;26.25;59.93;100614.06;4995515;28;20184;-66
2023/10/10 09:31:45;;;;;;;16.42;7.18;;;;;;;27.04;52.74;100620.94;4984317;28;20799;-65
2023/10/10 09:34:12;;;;;;;7.40;6.32;;;;;;;28.14;47.07;100621.19;4979030;28;20270;-64
2023/10/10 09:36:39;;;;;;;9.35;6.30;;;;;;;27.29;47.17;100623.31;4993487;28;20278;-65
2023/10/10 09:39:09;;;;;;;12.82;7.68;;;;;;;24.94;60.17;100610.00;4993994;28;20287;-65
2023/10/10 09:54:47;;;;;;;10.27;6.78;;;;;;;30.46;39.77;100607.13;4994699;28;20202;-65
2023/10/10 09:57:13;;;;;;;10.63;6.28;;;;;;;31.51;37.36;100608.25;4993712;28;20183;-65
2023/10/10 09:59:42;;;;;;;8.63;6.50;;;;;;;32.01;35.13;100604.97;4993584;28;20180;-64
2023/10/10 10:02:07;;;;;;;8.65;6.43;;;;;;;32.28;33.86;100613.63;4985389;28;20243;-65
2023/10/10 10:04:41;;;;;;;8.23;6.10;;;;;;;30.25;35.55;100608.94;4994540;28;20206;-65
2023/10/10 10:07:23;;;;;;;9.02;6.20;;;;;;;30.76;37.49;100609.38;4993570;28;20187;-65
2023/10/10 10:10:12;;;;;;;12.95;7.25;;;;;;;28.77;39.65;100603.88;4994775;28;20197;-65
2023/10/10 10:13:13;;;;;;;10.35;6.35;;;;;;;27.66;44.36;100600.47;4982671;28;20223;-65
2023/10/10 10:15:50;;;;;;;9.43;7.00;;;;;;;27.48;46.44;100603.50;4994368;28;20211;-64
2023/10/10 10:18:29;;;;;;;9.68;6.90;;;;;;;24.98;54.26;100603.44;4993215;28;20177;-63
2023/10/10 10:21:14;;;;;;;12.40;6.63;;;;;;;23.31;74.61;100597.88;4985886;28;20226;-65
2023/10/10 10:23:47;;;;;;;9.82;6.25;;;;;;;23.40;78.88;100604.00;4999861;28;20191;-66
2023/10/10 10:26:31;;;;;;;12.20;6.63;;;;;;;23.31;77.84;100597.06;4982869;28;20183;-64
2023/10/10 10:28:57;;;;;;;10.32;6.35;;;;;;;23.02;77.75;100595.50;4993840;28;20216;-64
2023/10/10 10:31:32;;;;;;;10.43;6.63;;;;;;;22.56;84.26;100593.00;4993589;28;20311;-68
2023/10/10 10:34:05;;;;;;;9.10;6.63;;;;;;;22.56;88.38;100593.00;4997867;28;20171;-64
2023/10/10 10:36:41;;;;;;;15.00;6.55;;;;;;;22.46;88.29;100593.06;4994098;28;20595;-65
2023/10/10 10:39:25;;;;;;;9.93;7.03;;;;;;;21.89;85.73;100598.50;4981205;28;20178;-62
2023/10/10 10:41:56;;;;;;;9.63;5.97;;;;;;;21.86;91.33;100598.81;4985315;28;20954;-64
2023/10/10 10:44:44;;;;;;;7.35;6.28;;;;;;;22.22;89.79;100598.88;4995466;28;20206;-66
2023/10/10 10:47:11;;;;;;;10.02;6.00;;;;;;;22.13;87.10;100592.75;4993872;28;20226;-64
2023/10/10 10:49:40;;;;;;;14.27;7.82;;;;;;;22.30;88.64;100598.13;4992550;28;20218;-65
2023/10/10 10:52:17;;;;;;;14.37;8.00;;;;;;;22.30;89.41;100596.38;4986576;28;20756;-64
2023/10/10 10:54:48;;;;;;;10.27;6.07;;;;;;;22.44;88.40;100586.34;4992380;28;20179;-65
2023/10/10 10:57:27;;;;;;;11.80;6.10;;;;;;;22.56;88.87;100582.53;4992626;28;20214;-64
2023/10/10 10:59:55;;;;;;;11.03;6.20;;;;;;;22.69;85.99;100582.16;4992131;28;20731;-65
2023/10/10 11:02:30;;;;;;;12.35;6.55;;;;;;;22.69;84.63;100579.53;4998211;28;20237;-65
2023/10/10 11:04:55;;;;;;;11.88;6.20;;;;;;;22.71;88.31;100586.28;4992224;28;20179;-64
2023/10/10 11:07:29;;;;;;;11.57;6.57;;;;;;;22.93;87.58;100583.31;4993601;28;20294;-64
2023/10/10 11:10:06;;;;;;;8.13;5.68;;;;;;;22.93;85.12;100576.25;4992677;28;20538;-64
2023/10/10 11:12:31;;;;;;;15.30;6.47;;;;;;;23.23;80.19;100574.19;4981000;28;20226;-64
2023/10/10 11:14:58;;;;;;;9.23;5.65;;;;;;;23.35;79.42;100572.13;4993897;28;20198;-66
2023/10/10 11:17:24;;;;;;;10.45;6.18;;;;;;;23.53;80.02;100574.69;4993250;28;20224;-65
2023/10/10 11:19:55;;;;;;;10.77;6.70;;;;;;;23.46;77.84;100568.44;4993452;28;20191;-65
2023/10/10 11:22:39;;;;;;;13.70;6.07;;;;;;;23.31;79.94;100563.75;4982307;28;20309;-64
2023/10/10 11:25:06;;;;;;;10.30;6.63;;;;;;;23.52;74.43;100558.09;4991812;28;20258;-65
2023/10/10 11:27:43;;;;;;;9.38;5.57;;;;;;;22.91;77.66;100559.03;4993167;28;20194;-64
2023/10/10 11:30:11;;;;;;;8.63;6.30;;;;;;;22.19;86.40;100555.47;4963933;28;20546;-65
2023/10/10 11:32:46;;;;;;;10.65;6.10;;;;;;;22.29;90.11;100555.41;5006530;28;20194;-64
2023/10/10 11:35:22;;;;;;;9.00;5.60;;;;;;;22.22;90.63;100547.28;4992833;28;20179;-65
2023/10/10 11:37:49;;;;;;;10.35;6.28;;;;;;;21.75;90.87;100547.44;4992963;28;20786;-64
2023/10/10 11:42:55;;;;;;;14.97;6.10;;;;;;;22.20;90.27;100528.31;5003696;28;20222;-64
2023/10/10 11:45:26;;;;;;;10.77;6.28;;;;;;;22.58;86.18;100536.00;4992558;28;20195;-66
2023/10/10 11:47:52;;;;;;;8.30;5.15;;;;;;;22.75;88.54;100531.72;4992840;28;20226;-65
2023/10/10 11:50:22;;;;;;;8.37;5.50;;;;;;;22.97;83.00;100526.94;4985084;28;20216;-65
2023/10/10 11:52:56;;;;;;;8.35;5.20;;;;;;;23.09;77.21;100525.69;5004614;28;20187;-66
2023/10/10 11:55:30;;;;;;;8.95;5.28;;;;;;;22.94;80.74;100520.22;4980863;28;20183;-65
2023/10/10 11:58:06;;;;;;;7.65;5.47;;;;;;;23.36;81.76;100510.78;4991298;28;20203;-65
2023/10/10 12:01:47;;;;;;;9.15;5.43;;;;;;;23.41;74.51;100512.94;4986138;28;20284;-64
2023/10/10 12:03:34;;;;;;;11.40;5.43;;;;;;;23.59;70.65;100502.34;4996856;28;20221;-64
2023/10/10 12:06:00;;;;;;;10.18;4.95;;;;;;;23.79;74.39;100505.50;4991175;28;20183;-65
2023/10/10 12:08:26;;;;;;;10.30;4.90;;;;;;;23.94;77.63;100505.72;4992348;28;20234;-65
2023/10/10 12:11:02;;;;;;;7.55;4.80;;;;;;;23.77;70.56;100499.63;4988169;28;20353;-65
2023/10/10 12:16:07;;;;;;;11.27;5.32;;;;;;;23.64;77.91;100495.63;4992348;28;20195;-65
2023/10/10 12:18:34;;;;;;;15.43;5.70;;;;;;;23.38;75.01;100493.06;5006525;28;20190;-66
2023/10/10 12:21:03;;;;;;;8.75;5.72;;;;;;;23.51;77.31;100490.00;4983688;28;20721;-65
2023/10/10 12:23:32;;;;;;;10.35;5.63;;;;;;;23.66;74.31;100490.22;4999190;28;20183;-65
2023/10/10 12:26:03;;;;;;;10.10;5.00;;;;;;;23.96;74.01;100488.00;4990877;28;20191;-65
2023/10/10 12:28:28;;;;;;;12.27;5.90;;;;;;;23.71;75.49;100484.50;4990779;28;20242;-65
2023/10/10 12:30:56;;;;;;;8.23;4.97;;;;;;;23.39;78.49;100480.78;4984015;28;20646;-65
2023/10/10 12:33:25;;;;;;;12.75;6.03;;;;;;;23.67;75.46;100482.19;4990412;28;20383;-66
2023/10/10 12:35:51;;;;;;;8.10;4.85;;;;;;;23.73;79.01;100483.34;4979550;28;20184;-65
2023/10/10 12:38:23;;;;;;;8.35;4.65;;;;;;;23.73;76.99;100472.84;4992443;28;20875;-65
2023/10/10 12:40:52;;;;;;;15.52;5.45;;;;;;;23.91;72.37;100477.16;4971725;28;20245;-65
2023/10/10 12:43:19;;;;;;;5.93;4.85;;;;;;;23.67;72.18;100478.75;4990226;28;20211;-65
2023/10/10 12:45:47;;;;;;;7.53;4.45;;;;;;;23.72;71.38;100465.94;4990872;28;20183;-65
2023/10/10 12:48:14;;;;;;;12.20;4.50;;;;;;;23.85;64.97;100463.69;4990560;28;20194;-66
2023/10/10 12:50:44;;;;;;;8.82;4.88;;;;;;;23.00;70.88;100463.69;4986731;28;20766;-65
2023/10/10 12:53:15;;;;;;;9.75;4.90;;;;;;;22.89;74.12;100459.53;4991837;28;20232;-65
2023/10/10 12:55:51;;;;;;;6.65;4.25;;;;;;;23.12;76.11;100454.56;4996404;28;20187;-65
2023/10/10 12:58:22;;;;;;;11.98;4.30;;;;;;;23.28;69.72;100456.47;4994651;28;20180;-65
2023/10/10 13:00:51;;;;;;;7.15;4.18;;;;;;;23.23;71.78;100455.28;4991055;28;20242;-65
2023/10/10 13:03:18;;;;;;;6.80;4.13;;;;;;;23.18;67.51;100455.75;4994020;28;20188;-65
2023/10/10 13:05:47;;;;;;;7.13;3.70;;;;;;;23.31;67.39;100448.25;4994695;28;20187;-65
2023/10/10 13:08:15;;;;;;;8.98;4.55;;;;;;;23.48;68.09;100450.94;4995816;28;20678;-66
2023/10/10 13:10:42;;;;;;;7.80;4.10;;;;;;;23.47;65.16;100447.50;4986870;28;20581;-66
2023/10/10 13:13:07;;;;;;;7.57;4.30;;;;;;;23.65;65.33;100442.16;4993271;28;20183;-66
2023/10/10 13:15:47;;;;;;;10.02;4.43;;;;;;;23.66;65.12;100438.50;4994335;28;20200;-65
2023/10/10 13:18:24;;;;;;;9.13;4.80;;;;;;;23.66;61.83;100435.06;4984645;28;20188;-66
2023/10/10 13:20:50;;;;;;;9.00;5.15;;;;;;;23.62;60.63;100423.25;4986913;28;20230;-64
2023/10/10 13:23:19;;;;;;;10.35;5.03;;;;;;;23.55;62.07;100430.13;5003981;28;20187;-65
2023/10/10 13:25:48;;;;;;;10.05;5.05;;;;;;;23.52;61.86;100429.47;4995158;28;20210;-66
2023/10/10 13:28:17;;;;;;;9.18;5.88;;;;;;;23.41;77.22;100434.22;4995554;28;20592;-65
2023/10/10 13:30:46;;;;;;;9.45;5.70;;;;;;;23.46;78.19;100427.47;4990176;28;20222;-65
2023/10/10 13:33:20;;;;;;;9.07;4.93;;;;;;;23.24;69.76;100428.06;5004638;28;20179;-66
2023/10/10 13:35:45;;;;;;;6.60;4.10;;;;;;;23.36;67.48;100424.97;4995181;28;20656;-63
2023/10/10 13:38:11;;;;;;;12.33;4.83;;;;;;;23.50;64.52;100420.91;4995069;28;20285;-65
2023/10/10 13:40:48;;;;;;;9.48;5.35;;;;;;;23.64;63.40;100416.88;4986592;28;20234;-66
2023/10/10 13:43:17;;;;;;;11.93;5.15;;;;;;;23.66;75.98;100424.56;4989076;28;20279;-66
2023/10/10 13:45:51;;;;;;;10.20;5.47;;;;;;;23.39;80.15;100412.53;4993516;28;20556;-65
2023/10/10 13:48:23;;;;;;;9.63;5.30;;;;;;;23.55;82.66;100417.81;4993609;28;20179;-65
2023/10/10 13:50:51;;;;;;;10.63;5.20;;;;;;;23.48;75.13;100419.44;4990286;28;20281;-65
2023/10/10 13:53:17;;;;;;;11.32;5.20;;;;;;;23.47;75.45;100418.63;5003534;28;20179;-65
2023/10/10 13:55:44;;;;;;;8.47;4.80;;;;;;;23.50;69.25;100412.22;4994884;28;20184;-64
2023/10/10 13:58:12;;;;;;;7.85;5.30;;;;;;;23.59;78.08;100408.66;4993458;28;20176;-65
2023/10/10 14:00:39;;;;;;;10.67;4.83;;;;;;;23.65;68.16;100407.16;4989010;28;20295;-66
2023/10/10 14:03:05;;;;;;;9.67;4.60;;;;;;;23.61;63.46;100405.84;5004291;28;20226;-65
2023/10/10 14:05:41;;;;;;;9.73;5.27;;;;;;;23.73;65.23;100401.09;4992776;28;20187;-66
2023/10/10 14:08:07;;;;;;;14.50;6.13;;;;;;;23.74;73.95;100400.13;4993265;28;20172;-65
2023/10/10 14:10:37;;;;;;;8.80;5.10;;;;;;;23.64;77.66;100398.47;4986229;28;20338;-66
2023/10/10 14:13:18;;;;;;;13.52;5.90;;;;;;;23.59;81.20;100403.41;5002422;28;20167;-66
2023/10/10 14:15:54;;;;;;;10.23;5.57;;;;;;;23.62;81.63;100410.94;4994202;28;20214;-65
2023/10/10 14:18:25;;;;;;;13.10;5.30;;;;;;;23.74;79.83;100400.97;4994739;28;20171;-64
2023/10/10 14:20:51;;;;;;;10.98;5.07;;;;;;;23.37;76.40;100405.63;4985992;28;20226;-65
2023/10/10 14:23:21;;;;;;;11.40;5.22;;;;;;;23.49;79.16;100402.72;5002933;28;20535;-65
2023/10/10 14:25:48;;;;;;;8.48;5.10;;;;;;;23.60;72.88;100407.66;4994234;28;20187;-66
2023/10/10 14:28:18;;;;;;;7.63;4.65;;;;;;;23.65;75.39;100404.53;4994198;28;20631;-65
2023/10/10 14:30:44;;;;;;;7.03;5.00;;;;;;;23.64;72.34;100405.53;4986002;28;20238;-66
2023/10/10 14:33:10;;;;;;;12.85;4.82;;;;;;;23.72;70.60;100404.72;5001761;28;20577;-65
2023/10/10 14:35:35;;;;;;;8.85;4.90;;;;;;;23.64;64.65;100400.28;4992659;28;20262;-65
2023/10/10 14:38:01;;;;;;;8.70;4.95;;;;;;;23.71;58.63;100403.91;4992884;28;20202;-65
2023/10/10 14:40:26;;;;;;;8.18;4.30;;;;;;;23.74;60.73;100394.88;4986486;28;21147;-66
2023/10/10 14:42:52;;;;;;;5.85;4.28;;;;;;;23.91;58.23;100404.41;4992192;28;20182;-66
2023/10/10 14:45:28;;;;;;;11.93;4.80;;;;;;;23.85;58.15;100399.78;4992582;28;20213;-66
2023/10/10 14:47:56;;;;;;;7.00;4.78;;;;;;;23.65;63.41;100391.41;4992787;28;20183;-66
2023/10/10 14:50:24;;;;;;;8.65;4.45;;;;;;;23.68;62.19;100391.91;4985091;28;20197;-65
2023/10/10 14:52:51;;;;;;;12.88;5.22;;;;;;;23.74;59.10;100393.09;5004906;28;20192;-66
2023/10/10 14:55:27;;;;;;;9.43;4.97;;;;;;;23.54;58.41;100387.28;4993829;28;20183;-65
2023/10/10 14:57:55;;;;;;;8.77;4.60;;;;;;;23.42;61.74;100389.41;4994204;28;20519;-65
2023/10/10 15:00:25;;;;;;;7.60;4.47;;;;;;;23.47;63.33;100383.69;4986006;28;20398;-65
2023/10/10 15:02:53;;;;;;;6.93;4.78;;;;;;;23.50;64.84;100388.59;4990573;28;20609;-65
2023/10/10 15:05:25;;;;;;;7.23;4.47;;;;;;;23.55;62.71;100386.31;4993691;28;20229;-65
2023/10/10 15:07:52;;;;;;;6.78;4.53;;;;;;;23.55;67.30;100383.69;4993301;28;20254;-65